TimeMDT,TemperatureF,Dew PointF,Humidity,Sea Level PressureIn,VisibilityMPH,Wind Direction,Wind SpeedMPH,Gust SpeedMPH,PrecipitationIn,Events,Conditions,WindDirDegrees,DateUTC
12:15 AM,32.0,12.2,44,30.46,10.0,Calm,Calm,-,N/A,,Unknown,0,2013-05-03 06:15:00
12:35 AM,32.0,12.2,44,30.46,10.0,ESE,5.8,-,N/A,,Unknown,120,2013-05-03 06:35:00
12:55 AM,30.2,12.2,47,30.45,10.0,ESE,6.9,-,N/A,,Unknown,110,2013-05-03 06:55:00
1:15 AM,30.2,12.2,47,30.44,10.0,ESE,5.8,-,N/A,,Unknown,110,2013-05-03 07:15:00
1:35 AM,30.2,12.2,47,30.43,10.0,SE,4.6,-,N/A,,Unknown,130,2013-05-03 07:35:00
1:55 AM,30.2,12.2,47,30.42,10.0,Calm,Calm,-,N/A,,Unknown,0,2013-05-03 07:55:00
2:15 AM,30.2,12.2,47,30.41,10.0,SSE,3.5,-,N/A,,Unknown,160,2013-05-03 08:15:00
2:35 AM,28.4,12.2,51,30.41,10.0,Calm,Calm,-,N/A,,Unknown,0,2013-05-03 08:35:00
2:55 AM,30.2,10.4,44,30.40,10.0,Calm,Calm,-,N/A,,Unknown,0,2013-05-03 08:55:00
3:15 AM,28.4,10.4,47,30.40,10.0,ESE,3.5,-,N/A,,Unknown,120,2013-05-03 09:15:00
3:35 AM,30.2,10.4,44,30.39,10.0,SSE,4.6,-,N/A,,Unknown,150,2013-05-03 09:35:00
3:55 AM,28.4,10.4,47,30.39,10.0,Calm,Calm,-,N/A,,Unknown,0,2013-05-03 09:55:00
4:15 AM,28.4,8.6,43,30.39,10.0,East,3.5,-,N/A,,Unknown,90,2013-05-03 10:15:00
4:35 AM,28.4,8.6,43,30.39,10.0,ESE,4.6,-,N/A,,Unknown,110,2013-05-03 10:35:00
4:55 AM,28.4,8.6,43,30.38,10.0,Calm,Calm,-,N/A,,Unknown,0,2013-05-03 10:55:00
5:15 AM,28.4,8.6,43,30.38,10.0,Calm,Calm,-,N/A,,Unknown,0,2013-05-03 11:15:00
5:35 AM,28.4,6.8,40,30.38,10.0,Calm,Calm,-,N/A,,Unknown,0,2013-05-03 11:35:00
5:55 AM,28.4,6.8,40,30.38,10.0,Calm,Calm,-,N/A,,Unknown,0,2013-05-03 11:55:00
6:15 AM,28.4,5.0,37,30.38,10.0,ESE,4.6,-,N/A,,Unknown,120,2013-05-03 12:15:00
6:35 AM,28.4,6.8,40,30.37,10.0,ESE,5.8,-,N/A,,Unknown,120,2013-05-03 12:35:00
6:55 AM,28.4,5.0,37,30.37,10.0,SE,6.9,-,N/A,,Unknown,130,2013-05-03 12:55:00
7:15 AM,30.2,5.0,34,30.37,10.0,ESE,4.6,-,N/A,,Unknown,110,2013-05-03 13:15:00
7:35 AM,30.2,5.0,34,30.36,10.0,Calm,Calm,-,N/A,,Unknown,0,2013-05-03 13:35:00
7:55 AM,32.0,3.2,30,30.35,10.0,ESE,3.5,-,N/A,,Unknown,120,2013-05-03 13:55:00
8:15 AM,33.8,1.4,25,30.34,10.0,Calm,Calm,-,N/A,,Unknown,0,2013-05-03 14:15:00
8:35 AM,35.6,3.2,26,30.33,10.0,Calm,Calm,-,N/A,,Unknown,0,2013-05-03 14:35:00
8:55 AM,37.4,3.2,24,30.33,10.0,Calm,Calm,-,N/A,,Unknown,0,2013-05-03 14:55:00
9:15 AM,41.0,5.0,23,30.32,10.0,Calm,Calm,-,N/A,,Unknown,0,2013-05-03 15:15:00
9:35 AM,42.8,-4.0,14,30.32,10.0,SW,3.5,-,N/A,,Unknown,230,2013-05-03 15:35:00
9:55 AM,42.8,-7.6,12,30.32,10.0,WSW,3.5,-,N/A,,Unknown,240,2013-05-03 15:55:00
10:15 AM,44.6,-5.8,12,30.31,10.0,Calm,Calm,-,N/A,,Unknown,0,2013-05-03 16:15:00
10:35 AM,46.4,-7.6,10,30.31,10.0,SW,3.5,-,N/A,,Unknown,230,2013-05-03 16:35:00
10:55 AM,48.2,-7.6,10,30.30,10.0,West,3.5,-,N/A,,Unknown,260,2013-05-03 16:55:00
11:35 AM,51.8,-0.4,12,30.28,10.0,West,4.6,-,N/A,,Unknown,260,2013-05-03 17:35:00
11:55 AM,51.8,-5.8,9,30.28,10.0,WSW,8.1,-,N/A,,Unknown,240,2013-05-03 17:55:00
12:15 PM,51.8,-0.4,12,30.27,10.0,West,10.4,-,N/A,,Unknown,270,2013-05-03 18:15:00
12:35 PM,53.6,-2.2,10,30.26,10.0,West,11.5,-,N/A,,Unknown,260,2013-05-03 18:35:00
12:55 PM,53.6,-2.2,10,30.25,10.0,SW,9.2,16.1,N/A,,Unknown,230,2013-05-03 18:55:00
1:15 PM,53.6,-0.4,11,30.24,10.0,WSW,8.1,16.1,N/A,,Unknown,250,2013-05-03 19:15:00
1:35 PM,53.6,1.4,12,30.23,10.0,WSW,9.2,18.4,N/A,,Unknown,250,2013-05-03 19:35:00
1:55 PM,55.4,3.2,12,30.23,10.0,West,15.0,-,N/A,,Unknown,270,2013-05-03 19:55:00
2:15 PM,53.6,3.2,13,30.22,-9999.0,West,9.2,-,N/A,,Unknown,260,2013-05-03 20:15:00
2:35 PM,55.4,3.2,12,30.22,10.0,WSW,11.5,-,N/A,,Unknown,250,2013-05-03 20:35:00
2:55 PM,55.4,5.0,13,30.21,10.0,SW,4.6,-,N/A,,Unknown,220,2013-05-03 20:55:00
3:15 PM,57.2,5.0,12,30.20,10.0,West,10.4,-,N/A,,Unknown,270,2013-05-03 21:15:00
3:35 PM,55.4,5.0,13,30.19,10.0,WNW,4.6,-,N/A,,Unknown,290,2013-05-03 21:35:00
3:55 PM,55.4,5.0,13,30.18,10.0,WNW,5.8,20.7,N/A,,Unknown,290,2013-05-03 21:55:00
4:15 PM,55.4,5.0,13,30.18,10.0,West,8.1,18.4,N/A,,Unknown,270,2013-05-03 22:15:00
4:35 PM,55.4,5.0,13,30.16,10.0,West,6.9,24.2,N/A,,Unknown,280,2013-05-03 22:35:00
4:55 PM,55.4,3.2,12,30.16,10.0,West,10.4,16.1,N/A,,Unknown,280,2013-05-03 22:55:00
5:15 PM,55.4,3.2,12,30.15,10.0,WSW,13.8,17.3,N/A,,Unknown,250,2013-05-03 23:15:00
5:35 PM,55.4,3.2,12,30.15,10.0,WNW,6.9,17.3,N/A,,Unknown,300,2013-05-03 23:35:00
5:55 PM,55.4,1.4,11,30.15,10.0,West,11.5,19.6,N/A,,Unknown,270,2013-05-03 23:55:00
6:15 PM,53.6,1.4,12,30.14,10.0,West,8.1,17.3,N/A,,Unknown,270,2013-05-04 00:15:00
6:35 PM,53.6,3.2,13,30.14,10.0,West,11.5,17.3,N/A,,Unknown,260,2013-05-04 00:35:00
6:55 PM,53.6,3.2,13,30.14,10.0,West,11.5,16.1,N/A,,Unknown,260,2013-05-04 00:55:00
7:15 PM,51.8,3.2,14,30.14,10.0,WNW,3.5,-,N/A,,Unknown,300,2013-05-04 01:15:00
7:35 PM,51.8,3.2,14,30.14,10.0,WNW,5.8,-,N/A,,Unknown,300,2013-05-04 01:35:00
7:55 PM,50.0,3.2,15,30.14,10.0,WNW,4.6,-,N/A,,Unknown,300,2013-05-04 01:55:00
8:15 PM,50.0,1.4,14,30.14,10.0,Calm,Calm,-,N/A,,Unknown,0,2013-05-04 02:15:00
8:35 PM,48.2,1.4,15,30.14,10.0,WSW,5.8,-,N/A,,Unknown,250,2013-05-04 02:35:00
8:55 PM,46.4,1.4,16,30.16,10.0,West,5.8,-,N/A,,Unknown,260,2013-05-04 02:55:00
9:15 PM,46.4,3.2,17,30.16,10.0,West,3.5,-,N/A,,Unknown,260,2013-05-04 03:15:00
9:55 PM,42.8,8.6,25,30.17,10.0,ESE,9.2,-,N/A,,Unknown,110,2013-05-04 03:55:00
10:15 PM,42.8,10.4,27,30.16,10.0,ESE,8.1,-,N/A,,Unknown,120,2013-05-04 04:15:00
10:35 PM,41.0,10.4,29,30.16,10.0,East,3.5,-,N/A,,Unknown,100,2013-05-04 04:35:00
10:55 PM,41.0,10.4,29,30.16,10.0,ESE,6.9,-,N/A,,Unknown,120,2013-05-04 04:55:00
11:15 PM,39.2,10.4,31,30.16,10.0,ESE,5.8,-,N/A,,Unknown,120,2013-05-04 05:15:00
11:35 PM,37.4,10.4,33,30.16,10.0,SE,6.9,-,N/A,,Unknown,130,2013-05-04 05:35:00
11:55 PM,37.4,10.4,33,30.14,10.0,SE,5.8,-,N/A,,Unknown,130,2013-05-04 05:55:00